Flight Track Log - Related Links

Times and Time Zones

All times are in EDT time to prevent confusion due to time zone crossing. See the N989LA flight status page for this flight to view local times or setup timezone preferences in your user account.

Time Position Orientation Groundspeed Altitude Reporting Facility
EDT Latitude Longitude Course Direction KTS MPH feet Rate Location/Type
Thu 12:17:07 PM 30.1536 -97.5411 99° East 187 215 5,000  Level Houston Center
Thu 12:18:10 PM 30.1661 -97.4839 76° East 186 214 6,900 1,632 Climbing Houston Center
Thu 12:19:12 PM 30.1931 -97.4297 60° Northeast 197 227 8,400 919 Climbing Houston Center
Thu 12:20:14 PM 30.2225 -97.3678 61° Northeast 208 239 8,800 194 Climbing Houston Center
Thu 12:21:00 PM 30.3667 -97.3678 90° East  Level FlightAware Approximate
Thu 12:21:16 PM 30.2572 -97.2928 62° Northeast 245 282 8,800  Level Houston Center
Thu 12:22:00 PM 30.3642 -97.2997 99° East  Level FlightAware Approximate
Thu 12:22:18 PM 30.2972 -97.2061 62° Northeast 261 300 8,900  Level Houston Center
Thu 12:23:20 PM 30.3283 -97.1369 62° Northeast 244 281 10,600 1,790 Climbing Houston Center
Thu 12:24:22 PM 30.3528 -97.0822 63° Northeast 198 228 12,600 1,839 Climbing Houston Center
Thu 12:25:24 PM 30.3508 -97.0303 92° East 162 186 14,400 1,065 Climbing Houston Center
Thu 12:26:26 PM 30.3469 -96.9711 94° East 180 207 14,800 192 Climbing Houston Center
Thu 12:27:29 PM 30.3408 -96.8972 95° East 225 259 14,800 -350 Level Houston Center
Thu 12:28:26 PM 30.3372 -96.8100 93° East 262 302 14,100 -919 Descending Houston Center
Thu 12:29:33 PM 30.3303 -96.7092 95° East 275 316 12,900 -1,581 Descending Houston Center
Thu 12:30:35 PM 30.3244 -96.6156 94° East 287 330 10,700 -1,935 Descending Houston Center
Thu 12:31:37 PM 30.3172 -96.5192 95° East 296 341 8,900 -1,443 Descending Houston Center
Thu 12:31:54 PM 30.3175 -96.4906 89° East 298 343 8,800 -97 Descending Houston Center
Thu 12:32:39 PM 30.3161 -96.4306 92° East 278 320 8,800 -393 Level Houston Center
Thu 12:33:41 PM 30.3019 -96.3483 101° East 265 305 8,100 -1,038 Descending Houston Center
Thu 12:34:52 PM 30.2514 -96.2489 120° Southeast 282 325 6,500 -1,258 Descending Houston Center
Thu 12:35:45 PM 30.2161 -96.1806 121° Southeast 277 319 5,500 -879 Descending Houston Center
Thu 12:36:48 PM 30.1767 -96.1053 121° Southeast 273 314 4,800 -336 Descending Houston Center
Thu 12:37:50 PM 30.1361 -96.0300 122° Southeast 253 291 4,800  Level Houston Center
Thu 12:38:52 PM 30.0983 -95.9572 121° Southeast 253 291 4,800 -290 Level Houston Center
Thu 12:39:54 PM 30.0494 -95.9006 135° Southeast 251 289 4,200 -878 Descending Houston Center
Thu 12:40:55 PM 30.0086 -95.8419 129° Southeast 224 258 3,000 -1,131 Descending Houston Center
Thu 12:41:56 PM 29.9622 -95.7919 137° Southeast 225 259 1,900 -1,082 Descending Houston Center

Login

Don't have an account? Register now (free) for customized features, flight alerts, and more!